Time;durP1;ratioP1;P1;durP2;ratioP2;P2;SDS_P1;SDS_P2;PMS_P1;PMS_P2;Temp;Humidity;BMP_temperature;BMP_pressure;BME280_temperature;BME280_humidity;BME280_pressure;Samples;Min_cycle;Max_cycle;Signal;HPM_P1;HPM_P2
2022/09/23 00:00:09;;;;;;;6.43;4.90;;;9.50;99.90;;;8.36;100.00;97601.63;5049695;28;20494;-80
2022/09/23 00:02:36;;;;;;;10.15;6.00;;;9.50;99.90;;;8.30;100.00;97595.41;5049120;28;20420;-80
2022/09/23 00:05:03;;;;;;;7.45;5.72;;;9.40;99.90;;;8.29;100.00;97601.72;5053033;28;20443;-80
2022/09/23 00:07:29;;;;;;;7.13;5.30;;;9.40;99.90;;;8.26;100.00;97602.19;5053329;28;20913;-80
2022/09/23 00:09:55;;;;;;;7.47;5.30;;;9.40;99.90;;;8.22;100.00;97601.03;5053320;28;20429;-80
2022/09/23 00:12:21;;;;;;;6.80;5.00;;;9.30;99.90;;;8.24;100.00;97601.63;5053155;28;20414;-80
2022/09/23 00:14:47;;;;;;;7.33;5.30;;;9.40;99.90;;;8.21;100.00;97598.63;5052656;28;20413;-79
2022/09/23 00:17:13;;;;;;;7.80;5.40;;;9.30;99.90;;;8.20;100.00;97592.53;5053155;28;20883;-80
2022/09/23 00:19:40;;;;;;;7.65;5.40;;;9.30;99.90;;;8.20;100.00;97602.28;5053096;28;20894;-80
2022/09/23 00:22:06;;;;;;;6.38;4.93;;;9.30;99.90;;;8.21;100.00;97593.34;5052971;28;20409;-80
2022/09/23 00:24:32;;;;;;;9.10;5.45;;;9.30;99.90;;;8.22;100.00;97597.59;5052502;28;20405;-80
2022/09/23 00:26:58;;;;;;;10.13;5.40;;;9.30;99.90;;;8.19;99.83;97596.25;5052847;28;20412;-80
2022/09/23 00:29:24;;;;;;;8.70;5.60;;;9.30;99.90;;;8.12;100.00;97598.16;5052896;28;20431;-80
2022/09/23 00:31:50;;;;;;;9.73;5.60;;;9.30;99.90;;;8.09;100.00;97601.28;5052879;28;20440;-80
2022/09/23 00:34:16;;;;;;;7.40;5.70;;;9.20;99.90;;;8.06;100.00;97596.44;5052278;28;20774;-80
2022/09/23 00:36:43;;;;;;;8.75;5.63;;;9.20;99.90;;;8.05;100.00;97594.84;5052736;28;20406;-80
2022/09/23 00:39:09;;;;;;;8.30;6.00;;;9.20;99.90;;;8.02;100.00;97590.84;5052750;28;20413;-80
2022/09/23 00:41:35;;;;;;;7.82;5.18;;;9.10;99.90;;;8.02;100.00;97592.69;5052848;28;20429;-80
2022/09/23 00:44:42;;;;;;;7.65;5.50;;;9.20;99.90;;;8.00;99.34;97595.53;5052115;28;20432;-80
2022/09/23 00:47:14;;;;;;;7.73;5.93;;;9.10;99.90;;;7.93;100.00;97592.22;5052567;28;20408;-80
2022/09/23 00:49:40;;;;;;;8.27;5.95;;;9.10;99.90;;;7.92;100.00;97595.88;5052643;28;20476;-80
2022/09/23 00:52:14;;;;;;;7.40;5.78;;;9.10;99.90;;;7.86;100.00;97588.91;5052405;28;20405;-80
2022/09/23 00:54:41;;;;;;;9.10;5.32;;;9.00;99.90;;;7.85;100.00;97586.47;5051928;28;20524;-80
2022/09/23 00:57:10;;;;;;;6.38;5.20;;;9.00;99.90;;;7.82;100.00;97589.59;5052275;28;20401;-80
2022/09/23 00:59:37;;;;;;;8.95;5.97;;;9.00;99.90;;;7.82;100.00;97584.31;5052316;28;20397;-79
2022/09/23 01:02:04;;;;;;;9.40;5.40;;;8.90;99.90;;;7.77;100.00;97580.53;5052344;28;20831;-80
2022/09/23 01:04:31;;;;;;;6.80;5.30;;;8.90;99.90;;;7.76;100.00;97583.38;5051793;28;20401;-80
2022/09/23 01:06:56;;;;;;;7.63;6.13;;;8.90;99.90;;;7.73;100.00;97576.75;5052167;28;20412;-80
2022/09/23 01:09:24;;;;;;;8.25;5.60;;;8.90;99.90;;;7.75;100.00;97579.13;5052234;28;20397;-80
2022/09/23 01:12:05;;;;;;;7.40;5.28;;;8.90;99.90;;;7.74;100.00;97580.97;5052012;28;20500;-80
2022/09/23 01:14:44;;;;;;;6.75;5.07;;;8.90;99.90;;;7.72;100.00;97574.34;5050642;28;20417;-80
2022/09/23 01:17:20;;;;;;;9.13;5.45;;;8.90;99.90;;;7.68;100.00;97571.34;5051983;28;20871;-80
2022/09/23 01:20:30;;;;;;;7.78;5.50;;;8.80;99.90;;;7.67;100.00;97574.19;5052035;28;20389;-80
2022/09/23 01:23:15;;;;;;;7.57;5.18;;;8.80;99.90;;;7.69;100.00;97569.50;5051442;28;20806;-79
2022/09/23 01:26:08;;;;;;;7.85;5.00;;;8.80;99.90;;;7.72;98.12;97574.34;5051757;28;20507;-79
2022/09/23 01:29:01;;;;;;;7.93;5.40;;;8.70;99.90;;;7.62;100.00;97574.09;5051759;28;20425;-79
2022/09/23 01:31:36;;;;;;;8.82;5.30;;;8.70;99.90;;;7.58;100.00;97565.03;5051701;28;20397;-79
2022/09/23 01:34:10;;;;;;;5.80;4.70;;;8.70;99.90;;;7.55;100.00;97566.28;5051161;28;20426;-79
2022/09/23 01:36:41;;;;;;;7.13;4.97;;;8.70;99.90;;;7.52;100.00;97560.69;5050318;28;20401;-80
2022/09/23 01:39:13;;;;;;;5.93;4.55;;;8.70;99.90;;;7.51;100.00;97565.16;5051605;28;20438;-79
2022/09/23 01:41:57;;;;;;;8.52;4.68;;;8.60;99.90;;;7.51;100.00;97559.09;5051607;28;20415;-80
2022/09/23 01:44:33;;;;;;;5.70;4.78;;;8.60;99.90;;;7.45;100.00;97552.88;5051122;28;21268;-80
2022/09/23 01:47:09;;;;;;;6.43;4.32;;;8.60;99.90;;;7.45;100.00;97559.97;5051414;28;20750;-79
2022/09/23 01:49:49;;;;;;;5.88;4.80;;;8.60;99.90;;;7.44;100.00;97545.22;5051428;28;20403;-80
2022/09/23 01:52:21;;;;;;;7.40;4.60;;;8.60;99.90;;;7.39;100.00;97557.22;5051477;28;20446;-80
2022/09/23 01:54:56;;;;;;;6.10;4.22;;;8.60;99.90;;;7.44;100.00;97546.03;5050780;28;20883;-79
2022/09/23 01:57:27;;;;;;;6.03;4.45;;;8.50;99.90;;;7.36;100.00;97549.78;5051295;28;20467;-80
2022/09/23 02:00:00;;;;;;;5.05;4.55;;;8.50;99.90;;;7.31;100.00;97554.91;5051333;28;20401;-79
2022/09/23 02:02:31;;;;;;;6.03;4.22;;;8.50;99.90;;;7.31;100.00;97548.84;5051091;28;20454;-80
2022/09/23 02:05:03;;;;;;;5.22;4.47;;;8.40;99.90;;;7.32;100.00;97540.72;5050758;28;20463;-79
2022/09/23 02:07:35;;;;;;;4.85;4.32;;;8.50;99.90;;;7.31;100.00;97541.75;5051100;28;20963;-80
2022/09/23 02:10:10;;;;;;;6.03;4.53;;;8.50;99.90;;;7.32;100.00;97538.09;5051072;28;20404;-80
2022/09/23 02:12:39;;;;;;;7.72;4.80;;;8.50;99.90;;;7.32;100.00;97539.91;5050734;28;20775;-80
2022/09/23 02:15:12;;;;;;;7.57;4.53;;;8.50;99.90;;;7.29;100.00;97532.50;5050597;28;20899;-80
2022/09/23 02:17:47;;;;;;;8.43;4.72;;;8.40;99.90;;;7.35;100.00;97535.00;5050973;28;21108;-80
2022/09/23 02:20:19;;;;;;;6.50;4.38;;;8.40;99.90;;;7.27;100.00;97537.97;5050856;28;20450;-80
2022/09/23 02:22:53;;;;;;;5.07;4.50;;;8.40;99.90;;;7.22;100.00;97545.72;5050469;28;20404;-79
2022/09/23 02:27:55;;;;;;;5.45;4.40;;;8.30;99.90;;;7.20;100.00;97537.28;5047345;28;20634;-80
2022/09/23 02:30:27;;;;;;;6.50;4.40;;;8.30;99.90;;;7.22;100.00;97529.94;5048936;28;20913;-79
2022/09/23 02:33:03;;;;;;;7.00;3.73;;;8.30;99.90;;;7.19;100.00;97533.03;5050163;28;20442;-79
2022/09/23 02:35:34;;;;;;;7.88;4.57;;;8.30;99.90;;;7.14;100.00;97532.09;5050391;28;20484;-80
2022/09/23 02:38:16;;;;;;;5.82;4.70;;;8.30;99.90;;;7.12;100.00;97528.88;5050632;28;20398;-79
2022/09/23 02:40:52;;;;;;;6.73;5.03;;;8.30;99.90;;;7.12;100.00;97528.88;5050476;28;20442;-80
2022/09/23 02:43:26;;;;;;;6.63;4.50;;;8.20;99.90;;;7.06;100.00;97529.78;5050002;28;20492;-80
2022/09/23 02:45:53;;;;;;;5.38;4.55;;;8.20;99.90;;;7.04;100.00;97534.47;5050366;28;20389;-80
2022/09/23 02:48:25;;;;;;;5.55;4.25;;;8.20;99.90;;;7.04;100.00;97521.31;5050460;28;20405;-80
2022/09/23 02:50:51;;;;;;;7.35;4.43;;;8.20;99.90;;;7.04;100.00;97527.38;5050402;28;20449;-78
2022/09/23 02:53:17;;;;;;;5.85;4.03;;;8.20;99.90;;;7.02;100.00;97524.16;5049849;28;20405;-79
2022/09/23 02:55:43;;;;;;;5.72;4.53;;;8.20;99.90;;;6.95;100.00;97515.56;5050088;28;20497;-79
2022/09/23 02:58:12;;;;;;;5.05;4.28;;;8.10;99.90;;;6.95;100.00;97515.56;5050246;28;20433;-79
2022/09/23 03:00:50;;;;;;;6.22;4.18;;;8.10;99.90;;;6.93;100.00;97521.03;5050244;28;20401;-79
2022/09/23 03:03:36;;;;;;;5.75;4.40;;;8.10;99.90;;;6.92;100.00;97514.16;5049689;28;20424;-79
2022/09/23 03:06:16;;;;;;;6.60;4.17;;;8.10;99.90;;;6.93;100.00;97515.78;5050194;28;20461;-79
2022/09/23 03:08:52;;;;;;;8.55;4.40;;;8.10;99.90;;;6.95;100.00;97516.38;5050289;28;20839;-79
2022/09/23 03:11:20;;;;;;;5.78;4.35;;;8.10;99.90;;;6.89;100.00;97512.00;5032306;28;20856;-80
2022/09/23 03:14:06;;;;;;;6.38;4.82;;;8.00;99.90;;;6.87;100.00;97514.06;5049613;28;20817;-80
2022/09/23 03:16:42;;;;;;;5.78;4.43;;;8.00;99.90;;;6.87;100.00;97514.06;5050141;28;20442;-79
2022/09/23 03:19:23;;;;;;;5.68;4.55;;;8.00;99.90;;;6.85;100.00;97510.84;5050192;28;20438;-80
2022/09/23 03:21:59;;;;;;;6.63;4.88;;;8.00;99.90;;;6.83;100.00;97515.53;5050099;28;20413;-80
2022/09/23 03:24:30;;;;;;;6.55;4.38;;;8.00;99.90;;;6.82;100.00;97513.94;5049605;28;20398;-80
2022/09/23 03:27:00;;;;;;;5.07;4.43;;;8.00;99.90;;;6.83;100.00;97512.91;5049842;28;20457;-80
2022/09/23 03:29:27;;;;;;;6.15;4.50;;;8.00;99.90;;;6.83;100.00;97517.38;5050042;28;20445;-80
2022/09/23 03:31:55;;;;;;;5.63;4.50;;;8.00;99.90;;;6.80;100.00;97518.59;5049987;28;20400;-79
2022/09/23 03:34:29;;;;;;;6.60;4.20;;;8.00;99.90;;;6.80;100.00;97515.97;5049421;28;20412;-80
2022/09/23 03:37:00;;;;;;;5.22;4.18;;;8.00;99.90;;;6.78;100.00;97507.50;5049922;28;20474;-80
2022/09/23 03:39:35;;;;;;;5.73;4.33;;;7.90;99.90;;;6.76;100.00;97511.41;5053536;28;20441;-80
2022/09/23 03:42:07;;;;;;;9.50;4.73;;;7.90;99.90;;;6.74;100.00;97510.81;5036116;28;20449;-78
2022/09/23 03:44:38;;;;;;;5.75;4.53;;;7.90;99.90;;;6.73;100.00;97504.75;5053261;28;20406;-79
2022/09/23 03:47:05;;;;;;;6.32;4.88;;;7.90;99.90;;;6.71;100.00;97506.78;5053777;28;20461;-78
2022/09/23 03:49:38;;;;;;;6.63;4.90;;;7.90;99.90;;;6.70;100.00;97505.19;5052416;28;20407;-79
2022/09/23 03:52:04;;;;;;;5.55;4.65;;;7.90;99.90;;;6.69;100.00;97503.56;5052686;28;20480;-79
2022/09/23 03:54:30;;;;;;;5.47;4.60;;;7.90;99.90;;;6.67;100.00;97503.00;5052457;28;20432;-79
2022/09/23 03:56:57;;;;;;;6.87;4.47;;;7.80;99.90;;;6.67;100.00;97495.13;5052882;28;20917;-73
2022/09/23 03:59:23;;;;;;;6.05;5.07;;;7.80;99.90;;;6.63;100.00;97495.75;5053000;28;20406;-78
2022/09/23 04:01:49;;;;;;;5.50;4.65;;;7.80;99.90;;;6.63;100.00;97498.41;5053021;28;20393;-79
2022/09/23 04:04:15;;;;;;;6.68;4.63;;;7.80;99.90;;;6.62;100.00;97492.34;5052525;28;20462;-75
2022/09/23 04:06:42;;;;;;;5.80;4.20;;;7.80;99.90;;;6.64;100.00;97489.47;5052791;28;20797;-78
2022/09/23 04:09:08;;;;;;;5.13;4.00;;;7.80;99.90;;;6.60;100.00;97486.50;5052532;28;20419;-75
2022/09/23 04:11:34;;;;;;;5.40;4.65;;;7.80;99.90;;;6.57;100.00;97486.94;5051543;28;20401;-78
2022/09/23 04:14:00;;;;;;;7.47;4.80;;;7.70;99.90;;;6.56;100.00;97482.72;5052162;28;20405;-79
2022/09/23 04:16:26;;;;;;;7.20;5.15;;;7.70;99.90;;;6.54;100.00;97477.66;5048396;28;20843;-79
2022/09/23 04:18:52;;;;;;;5.10;4.53;;;7.70;99.90;;;6.52;100.00;97474.47;5048989;28;20530;-79
2022/09/23 04:21:18;;;;;;;5.57;4.53;;;7.70;99.90;;;6.52;100.00;97469.22;5052269;28;20412;-79
2022/09/23 04:23:46;;;;;;;6.63;4.77;;;7.70;99.90;;;6.52;100.00;97468.41;5051451;28;20434;-78
2022/09/23 04:26:13;;;;;;;8.05;4.65;;;7.70;99.90;;;6.55;100.00;97473.22;5050904;28;20468;-79
2022/09/23 04:28:39;;;;;;;7.43;4.60;;;7.70;99.90;;;6.53;100.00;97472.66;5052109;28;20460;-78
2022/09/23 04:31:06;;;;;;;6.30;4.82;;;7.70;99.90;;;6.51;100.00;97470.25;5052784;28;20417;-78
2022/09/23 04:33:32;;;;;;;6.05;4.63;;;7.70;99.90;;;6.48;100.00;97475.13;5052292;28;20405;-78
2022/09/23 04:35:58;;;;;;;9.02;5.20;;;7.60;99.90;;;6.49;100.00;97469.66;5051920;28;20418;-78
2022/09/23 04:38:24;;;;;;;6.70;5.18;;;7.70;99.90;;;6.49;100.00;97467.03;5052120;28;20476;-78
2022/09/23 04:40:52;;;;;;;6.20;4.72;;;7.70;99.90;;;6.49;100.00;97474.09;5052099;28;20806;-78
2022/09/23 04:43:22;;;;;;;7.88;4.85;;;7.70;99.90;;;6.47;100.00;97476.94;5051628;28;20404;-79
2022/09/23 04:45:58;;;;;;;6.53;4.53;;;7.60;99.90;;;6.45;100.00;97481.66;5052031;28;20474;-78
2022/09/23 04:48:24;;;;;;;6.32;4.57;;;7.60;99.90;;;6.43;100.00;97473.19;5052347;28;20451;-78
2022/09/23 04:50:50;;;;;;;5.85;4.85;;;7.60;99.90;;;6.40;100.00;97473.59;5051352;28;20402;-78
2022/09/23 04:53:16;;;;;;;6.13;5.35;;;7.60;99.90;;;6.39;100.00;97471.22;5051745;28;20461;-78
2022/09/23 04:55:42;;;;;;;6.45;4.80;;;7.60;99.90;;;6.39;100.00;97474.63;5051773;28;20870;-77
2022/09/23 04:58:10;;;;;;;5.95;5.05;;;7.60;99.90;;;6.36;100.00;97479.53;5051940;28;20405;-79
2022/09/23 05:00:36;;;;;;;5.80;4.80;;;7.50;99.90;;;6.37;100.00;97478.53;5052038;28;20470;-78
2022/09/23 05:03:02;;;;;;;8.32;5.13;;;7.50;99.90;;;6.36;100.00;97479.53;5051670;28;20401;-75
2022/09/23 05:05:29;;;;;;;7.17;4.90;;;7.50;99.90;;;6.36;100.00;97480.34;5051749;28;20424;-76
2022/09/23 05:07:56;;;;;;;6.53;5.10;;;7.50;99.90;;;6.33;100.00;97480.78;5051630;28;20401;-75
2022/09/23 05:10:22;;;;;;;6.50;5.50;;;7.50;99.90;;;6.32;100.00;97488.88;5050379;28;20397;-75
2022/09/23 05:12:48;;;;;;;8.73;5.57;;;7.50;99.90;;;6.32;100.00;97492.31;5050198;28;20410;-77
2022/09/23 05:15:15;;;;;;;6.63;5.70;;;7.50;99.90;;;6.33;100.00;97485.22;5050671;28;20413;-76
2022/09/23 05:17:41;;;;;;;6.93;5.45;;;7.50;99.90;;;6.35;100.00;97491.88;5050466;28;20428;-75
2022/09/23 05:20:09;;;;;;;8.98;5.82;;;7.50;99.90;;;6.34;100.00;97487.66;5050600;28;21013;-76
2022/09/23 05:22:35;;;;;;;9.73;5.53;;;7.50;99.90;;;6.35;100.00;97488.44;5050335;28;20473;-76
2022/09/23 05:25:02;;;;;;;7.88;5.72;;;7.50;99.90;;;6.37;100.00;97497.72;5051524;28;20393;-76
2022/09/23 05:27:28;;;;;;;6.88;5.10;;;7.50;99.90;;;6.38;100.00;97490.66;5051647;28;20413;-74
2022/09/23 05:29:53;;;;;;;6.93;5.40;;;7.50;99.90;;;6.36;100.00;97490.88;5051865;28;20434;-76
2022/09/23 05:32:21;;;;;;;6.53;5.20;;;7.50;99.90;;;6.36;100.00;97485.59;5050494;28;20500;-75
2022/09/23 05:34:47;;;;;;;8.05;5.53;;;7.50;99.90;;;6.36;100.00;97484.81;5051172;28;20786;-76
2022/09/23 05:37:13;;;;;;;5.82;5.22;;;7.50;99.90;;;6.38;100.00;97483.56;5046799;28;20465;-76
2022/09/23 05:39:39;;;;;;;6.20;5.53;;;7.50;99.90;;;6.40;100.00;97486.75;5050503;28;20558;-77
2022/09/23 05:42:05;;;;;;;6.82;5.18;;;7.60;99.90;;;6.44;100.00;97495.81;5051377;28;20577;-76
2022/09/23 05:44:31;;;;;;;7.40;5.93;;;7.60;99.90;;;6.46;100.00;97493.78;5050864;28;20394;-76
2022/09/23 05:46:57;;;;;;;8.00;5.78;;;7.60;99.90;;;6.49;100.00;97489.88;5051456;28;21000;-74
2022/09/23 05:49:24;;;;;;;7.53;6.00;;;7.70;99.90;;;6.52;100.00;97497.34;5051337;28;20398;-74
2022/09/23 05:51:50;;;;;;;9.10;5.50;;;7.70;99.90;;;6.55;100.00;97486.38;5050414;28;20447;-76
2022/09/23 05:54:16;;;;;;;9.40;6.57;;;7.70;99.90;;;6.57;100.00;97498.28;5048964;28;20471;-76
2022/09/23 05:56:42;;;;;;;7.57;5.88;;;7.70;99.90;;;6.59;100.00;97493.59;5032950;28;20910;-76
2022/09/23 05:59:08;;;;;;;8.57;6.20;;;7.70;99.90;;;6.60;100.00;97497.03;5050998;28;20405;-76
2022/09/23 06:01:36;;;;;;;7.85;6.22;;;7.70;99.90;;;6.64;100.00;97498.19;5050562;28;20492;-77
2022/09/23 06:04:05;;;;;;;8.40;6.30;;;7.80;99.90;;;6.67;100.00;97497.75;5050657;28;20461;-76
2022/09/23 06:06:34;;;;;;;10.43;6.47;;;7.80;99.90;;;6.71;100.00;97490.19;5050917;28;20465;-76
2022/09/23 06:09:01;;;;;;;8.35;6.57;;;7.80;99.90;;;6.73;100.00;97488.16;5051119;28;21035;-76
2022/09/23 06:11:29;;;;;;;9.88;6.40;;;7.80;99.90;;;6.79;100.00;97492.50;5051059;28;20535;-75
2022/09/23 06:14:01;;;;;;;7.82;5.90;;;7.90;99.90;;;6.85;100.00;97491.59;5050316;28;20409;-76
2022/09/23 06:16:28;;;;;;;8.30;6.47;;;7.90;99.90;;;6.91;100.00;97488.91;5050741;28;20910;-76
2022/09/23 06:18:54;;;;;;;7.88;6.05;;;8.00;99.90;;;6.98;100.00;97484.34;5050884;28;20763;-76
2022/09/23 06:21:21;;;;;;;7.43;5.60;;;8.10;99.90;;;7.03;100.00;97483.66;5050757;28;20894;-76
2022/09/23 06:23:48;;;;;;;8.15;6.20;;;8.10;99.90;;;7.10;100.00;97483.56;5050252;28;20520;-77
2022/09/23 06:26:15;;;;;;;9.48;6.25;;;8.20;99.90;;;7.17;100.00;97486.88;5050488;28;20413;-76
2022/09/23 06:28:43;;;;;;;8.07;6.55;;;8.20;99.90;;;7.24;100.00;97477.84;5050819;28;20487;-77
2022/09/23 06:31:12;;;;;;;8.18;6.35;;;8.30;99.90;;;7.31;100.00;97478.56;5050694;28;20473;-77
2022/09/23 06:33:38;;;;;;;8.07;6.18;;;8.40;99.90;;;7.41;100.00;97475.34;5049559;28;20481;-76
2022/09/23 06:36:09;;;;;;;7.55;6.00;;;8.50;99.90;;;7.51;100.00;97477.44;5035894;28;20432;-76
2022/09/23 06:38:38;;;;;;;12.55;6.72;;;8.50;99.90;;;7.60;100.00;97476.84;5036429;28;20422;-76
2022/09/23 06:41:06;;;;;;;8.48;6.43;;;8.60;99.90;;;7.68;100.00;97479.13;5044899;28;20421;-75
2022/09/23 06:43:32;;;;;;;7.73;6.40;;;8.70;99.90;;;7.78;100.00;97475.91;5049816;28;20462;-75
2022/09/23 06:46:00;;;;;;;9.65;6.65;;;8.80;99.90;;;7.86;100.00;97474.78;5049967;28;20390;-77
2022/09/23 06:48:27;;;;;;;7.73;6.47;;;8.90;99.90;;;7.90;100.00;97476.69;5044385;28;20964;-76
2022/09/23 06:50:56;;;;;;;8.60;6.80;;;8.90;99.90;;;7.97;100.00;97487.91;5046433;28;20423;-76
2022/09/23 06:53:23;;;;;;;11.13;6.63;;;9.00;99.90;;;8.03;100.00;97486.22;5049031;28;20409;-76
2022/09/23 06:55:58;;;;;;;8.23;6.63;;;9.00;99.90;;;8.10;100.00;97487.69;5031600;28;20524;-77
2022/09/23 06:58:26;;;;;;;12.23;7.80;;;9.10;99.90;;;8.16;100.00;97483.31;5032533;28;20413;-76
2022/09/23 07:00:53;;;;;;;10.38;7.03;;;9.10;99.90;;;8.26;100.00;97485.38;5044451;28;20406;-76
2022/09/23 07:03:22;;;;;;;10.27;7.07;;;9.20;99.90;;;8.33;100.00;97478.94;5037561;28;20401;-76
2022/09/23 07:05:52;;;;;;;10.52;6.78;;;9.30;99.90;;;8.42;100.00;97479.38;5043246;28;20417;-74
2022/09/23 07:08:18;;;;;;;14.20;7.35;;;9.40;99.90;;;8.52;100.00;97485.63;5031996;28;20976;-74
2022/09/23 07:10:51;;;;;;;8.83;6.67;;;9.50;99.90;;;8.62;100.00;97482.41;5048008;28;20437;-73
2022/09/23 07:13:16;;;;;;;7.80;5.63;;;9.60;99.90;;;8.74;100.00;97487.63;5037001;28;20435;-78
2022/09/23 07:15:48;;;;;;;10.10;5.53;;;9.70;99.90;;;8.85;100.00;97492.84;5051162;28;20457;-78
2022/09/23 07:18:14;;;;;;;9.45;5.63;;;9.80;99.90;;;8.93;100.00;97481.91;5054066;28;20758;-76
2022/09/23 07:20:40;;;;;;;8.02;5.30;;;9.90;99.90;;;9.04;100.00;97480.22;5041531;28;20884;-76
2022/09/23 07:23:06;;;;;;;9.43;5.32;;;9.90;99.90;;;9.06;100.00;97491.34;5053464;28;20408;-75
2022/09/23 07:25:33;;;;;;;6.57;5.05;;;10.00;99.90;;;9.21;100.00;97480.25;5053803;28;20843;-76
2022/09/23 07:27:59;;;;;;;5.90;4.53;;;10.10;99.90;;;9.40;100.00;97488.75;5052005;28;20423;-76
2022/09/23 07:30:25;;;;;;;6.15;4.40;;;10.30;99.90;;;9.48;100.00;97481.19;5053460;28;20543;-76
2022/09/23 07:32:53;;;;;;;5.47;4.68;;;10.40;99.90;;;9.62;100.00;97476.41;5051361;28;20492;-75
2022/09/23 07:35:19;;;;;;;7.97;4.60;;;10.50;99.90;;;9.73;100.00;97478.13;5039151;28;20413;-76
2022/09/23 07:37:45;;;;;;;6.75;4.80;;;10.60;99.90;;;9.86;100.00;97480.41;5044757;28;20456;-76
2022/09/23 07:40:11;;;;;;;4.68;3.80;;;10.70;99.90;;;9.96;100.00;97477.13;5046292;28;20883;-76
2022/09/23 07:42:39;;;;;;;5.40;4.10;;;10.80;99.90;;;10.04;100.00;97482.00;5037189;28;20918;-74
2022/09/23 07:45:07;;;;;;;6.10;4.20;;;10.90;99.90;;;10.13;100.00;97482.38;5037015;28;20405;-76
2022/09/23 07:47:33;;;;;;;5.55;3.88;;;11.00;99.90;;;10.21;100.00;97482.78;5045960;28;20410;-76
2022/09/23 07:50:01;;;;;;;8.60;3.75;;;11.10;99.90;;;10.25;100.00;97475.94;5044530;28;20429;-76
2022/09/23 07:52:27;;;;;;;5.35;3.70;;;11.10;99.90;;;10.34;100.00;97473.66;5038502;28;20414;-76
2022/09/23 07:54:53;;;;;;;7.80;3.63;;;11.20;99.90;;;10.41;100.00;97480.38;5049532;28;20802;-76
2022/09/23 07:57:19;;;;;;;3.60;3.07;;;11.30;99.90;;;10.42;100.00;97481.97;5051959;28;20412;-76
2022/09/23 07:59:44;;;;;;;5.13;3.10;;;11.30;99.90;;;10.52;100.00;97486.59;5044299;28;20494;-76
2022/09/23 08:02:15;;;;;;;4.80;3.40;;;11.40;99.90;;;10.54;100.00;97478.38;5045842;28;20413;-75
2022/09/23 08:04:41;;;;;;;3.83;2.87;;;11.40;99.90;;;10.63;100.00;97480.34;5036339;28;20986;-76
2022/09/23 08:07:10;;;;;;;4.13;3.30;;;11.50;99.90;;;10.65;100.00;97483.53;5049257;28;20418;-76
2022/09/23 08:09:40;;;;;;;4.03;3.10;;;11.50;99.90;;;10.72;100.00;97486.78;5040997;28;20437;-76
2022/09/23 08:12:06;;;;;;;4.10;3.38;;;11.60;99.90;;;10.75;100.00;97482.88;5041615;28;20396;-76
2022/09/23 08:14:32;;;;;;;3.85;2.88;;;11.60;99.90;;;10.81;100.00;97495.91;5046419;28;20425;-76
2022/09/23 08:16:58;;;;;;;4.50;2.93;;;11.60;99.90;;;10.86;100.00;97492.50;5036620;28;20492;-76
2022/09/23 08:19:24;;;;;;;4.50;3.20;;;11.70;99.90;;;10.88;100.00;97489.59;5045439;28;20533;-76
2022/09/23 08:21:51;;;;;;;5.03;3.20;;;11.70;99.90;;;10.91;99.51;97492.53;5043737;28;20875;-76
2022/09/23 08:24:22;;;;;;;6.80;2.95;;;11.70;99.90;;;10.97;99.38;97488.09;5037449;28;20494;-76
2022/09/23 08:26:50;;;;;;;4.18;2.80;;;11.80;99.90;;;11.04;99.47;97494.81;5072882;22;20419;-85
2022/09/23 08:29:18;;;;;;;4.45;3.13;;;11.80;99.90;;;11.17;98.86;97496.22;5072090;28;20892;-86
2022/09/23 08:31:44;;;;;;;4.65;3.30;;;12.00;99.90;;;11.18;97.47;97489.88;5069889;28;20465;-86
2022/09/23 08:34:10;;;;;;;3.58;2.90;;;12.00;99.90;;;11.22;97.34;97491.75;5069743;28;20404;-85
2022/09/23 08:36:36;;;;;;;5.10;3.03;;;12.00;99.90;;;11.27;97.55;97492.88;5070277;28;20423;-86
2022/09/23 08:39:04;;;;;;;6.30;3.00;;;12.10;99.90;;;11.35;97.67;97485.25;5072891;28;20487;-85
2022/09/23 08:41:39;;;;;;;4.05;2.90;;;12.10;99.90;;;11.44;97.22;97493.53;5072583;28;20426;-85
2022/09/23 08:44:12;;;;;;;4.47;2.78;;;12.30;99.90;;;11.47;96.85;97488.53;5072175;28;20423;-86
2022/09/23 08:46:45;;;;;;;4.87;3.30;;;12.30;99.90;;;11.53;96.96;97484.84;5072467;28;20419;-85
2022/09/23 08:49:20;;;;;;;4.22;2.80;;;12.40;99.90;;;11.59;96.66;97489.13;5071085;28;20450;-86
2022/09/23 08:51:50;;;;;;;4.47;3.30;;;12.40;99.90;;;11.66;96.44;97494.22;5063826;28;20479;-85
2022/09/23 08:54:17;;;;;;;4.15;3.20;;;12.50;99.90;;;11.63;90.03;97489.44;5072492;28;20399;-85
2022/09/23 08:56:50;;;;;;;6.45;3.08;;;12.40;99.90;;;11.67;89.25;97484.41;5083748;28;20405;-85
2022/09/23 08:59:25;;;;;;;5.18;2.90;;;12.50;99.90;;;11.76;89.39;97493.53;5071946;28;20426;-84
2022/09/23 09:01:54;;;;;;;3.78;2.80;;;12.50;99.90;;;11.82;89.73;97493.28;5062508;28;20765;-85
2022/09/23 09:04:26;;;;;;;3.45;2.92;;;12.60;99.90;;;11.92;91.13;97493.38;5072466;28;20426;-85
2022/09/23 09:06:57;;;;;;;5.95;3.00;;;12.70;99.90;;;11.92;88.83;97493.38;5064930;28;20406;-86
2022/09/23 09:09:29;;;;;;;5.47;3.15;;;12.80;99.90;;;11.99;82.97;97493.94;5079206;28;20416;-83
2022/09/23 09:12:06;;;;;;;6.00;2.80;;;12.80;99.90;;;12.08;85.09;97488.94;5075571;28;20826;-78
2022/09/23 09:14:42;;;;;;;4.25;2.90;;;12.90;99.90;;;12.15;83.65;97486.84;5081963;28;20419;-79
2022/09/23 09:17:16;;;;;;;4.13;2.60;;;13.00;99.90;;;12.25;84.33;97492.22;5061646;28;20406;-85
2022/09/23 09:19:54;;;;;;;4.95;2.78;;;13.00;99.90;;;12.34;86.08;97480.03;5060751;28;20397;-88
2022/09/23 09:22:36;;;;;;;4.45;2.67;;;13.10;99.90;;;12.33;81.34;97477.63;5052285;28;20466;-86
2022/09/23 09:25:18;;;;;;;3.15;2.55;;;13.10;99.90;;;12.43;84.73;97479.53;5060992;28;20406;-84
2022/09/23 09:27:47;;;;;;;3.53;2.58;;;13.20;99.90;;;12.55;86.95;97477.47;5043788;28;20473;-85
2022/09/23 09:30:14;;;;;;;6.45;2.70;;;13.30;99.90;;;12.64;88.07;97475.88;5069148;28;20562;-84
2022/09/23 09:32:47;;;;;;;3.08;2.22;;;13.40;99.90;;;12.71;88.38;97477.22;5061533;28;20496;-84
2022/09/23 09:35:26;;;;;;;3.10;2.20;;;13.40;99.90;;;12.86;88.96;97473.00;5050924;28;20976;-84
2022/09/23 09:37:52;;;;;;;6.10;2.42;;;13.60;99.90;;;12.95;88.51;97463.44;5051081;28;21001;-84
2022/09/23 09:40:19;;;;;;;4.07;2.37;;;13.70;99.90;;;13.10;88.42;97469.59;5055847;28;20415;-86
2022/09/23 09:42:49;;;;;;;8.25;2.72;;;13.80;99.90;;;13.04;79.31;97459.22;5051393;28;20414;-81
2022/09/23 09:45:26;;;;;;;3.80;2.50;;;13.80;99.90;;;13.18;82.83;97460.31;5059771;28;20413;-82
2022/09/23 09:48:04;;;;;;;2.35;2.05;;;13.90;99.90;;;13.26;84.80;97459.00;5069070;28;20403;-84
2022/09/23 09:50:47;;;;;;;5.35;2.78;;;14.00;99.90;;;13.41;86.00;97453.66;5073479;28;20402;-80
2022/09/23 09:53:21;;;;;;;3.10;2.15;;;14.10;99.90;;;13.64;86.56;97447.78;5068794;28;20410;-78
2022/09/23 09:55:59;;;;;;;3.73;2.10;;;14.30;99.90;;;13.84;86.20;97445.09;5085577;28;20486;-77
2022/09/23 09:58:33;;;;;;;4.93;2.53;;;14.50;99.90;;;13.94;79.77;97437.09;5084601;28;20427;-84
2022/09/23 10:01:00;;;;;;;4.30;2.55;;;14.70;99.90;;;14.03;77.87;97437.31;5084788;28;20448;-86
2022/09/23 10:03:40;;;;;;;3.55;2.13;;;14.70;99.90;;;14.22;80.89;97434.84;5076255;28;20408;-80
2022/09/23 10:06:16;;;;;;;4.10;2.38;;;14.90;99.90;;;14.21;79.96;97433.25;5059557;28;20430;-81
2022/09/23 10:09:02;;;;;;;5.07;2.23;;;14.90;99.90;;;14.24;81.11;97432.72;5057075;28;20403;-83
2022/09/23 10:11:30;;;;;;;4.40;2.22;;;14.90;99.90;;;14.25;82.21;97431.66;5062789;28;20911;-86
2022/09/23 10:14:12;;;;;;;5.45;2.50;;;14.90;99.90;;;14.27;82.43;97435.63;5053471;28;20741;-86
2022/09/23 10:16:40;;;;;;;3.03;2.00;;;14.90;99.90;;;14.37;83.19;97431.31;5054271;28;20421;-88
2022/09/23 10:19:23;;;;;;;6.70;2.40;;;15.00;99.90;;;14.40;83.09;97426.28;5054749;28;20436;-75
2022/09/23 10:21:55;;;;;;;3.35;2.15;;;15.10;99.90;;;14.56;83.47;97427.00;5064708;28;20431;-79
2022/09/23 10:24:26;;;;;;;4.75;2.30;;;15.20;99.90;;;14.68;83.96;97425.59;5057580;28;20460;-80
2022/09/23 10:26:59;;;;;;;3.00;2.10;;;15.30;99.90;;;14.79;83.80;97423.66;5057312;28;20411;-84
2022/09/23 10:29:32;;;;;;;2.30;1.80;;;15.40;99.90;;;14.98;83.59;97429.13;5068176;28;20399;-89
2022/09/23 10:32:31;;;;;;;4.82;2.63;;;15.50;99.90;;;14.94;76.83;97428.09;5076579;28;20443;-91
2022/09/23 10:35:02;;;;;;;3.15;2.05;;;15.60;99.90;;;15.14;79.03;97419.94;5011077;28;20423;-90
2022/09/23 10:37:36;;;;;;;2.47;2.00;;;15.70;99.90;;;15.32;79.97;97421.13;5050668;28;20413;-84